Time;durP1;ratioP1;P1;durP2;ratioP2;P2;SDS_P1;SDS_P2;PMS_P1;PMS_P2;Temp;Humidity;BMP_temperature;BMP_pressure;BME280_temperature;BME280_humidity;BME280_pressure;Samples;Min_cycle;Max_cycle;Signal;HPM_P1;HPM_P2
2021/07/28 00:01:08;;;;;;;;;;;;;;;-142.75;68.53;76219.91;5059820;28;20330;-79
2021/07/28 00:03:33;;;;;;;;;;;;;;;-142.75;68.03;76212.03;5068384;28;19926;-79
2021/07/28 00:05:58;;;;;;;;;;;;;;;-142.75;67.88;76208.09;5059433;28;20344;-79
2021/07/28 00:08:24;;;;;;;;;;;;;;;-142.75;67.85;76200.25;5064430;28;20011;-79
2021/07/28 00:10:49;;;;;;;;;;;;;;;-142.75;67.89;76212.03;5059215;28;20348;-79
2021/07/28 00:13:14;;;;;;;;;;;;;;;-142.75;68.16;76202.19;5061804;28;19916;-79
2021/07/28 00:15:40;;;;;;;;;;;;;;;-142.75;67.99;76188.44;5059593;28;19924;-80
2021/07/28 00:18:13;;;;;;;;;;;;;;;-142.75;68.03;76194.34;5063206;28;19916;-79
2021/07/28 00:23:13;;;;;;;;;;;;;;;-142.75;68.52;76210.06;5068089;28;20374;-79
2021/07/28 00:25:39;;;;;;;;;;;;;;;-142.75;68.63;76217.94;5053764;28;19924;-79
2021/07/28 00:28:04;;;;;;;;;;;;;;;-142.75;68.67;76208.09;5055477;28;19967;-79
2021/07/28 00:30:30;;;;;;;;;;;;;;;-142.75;68.64;76221.88;5050649;28;19917;-78
2021/07/28 00:32:55;;;;;;;;;;;;;;;-142.75;68.74;76219.91;5057657;28;19970;-77
2021/07/28 00:35:20;;;;;;;;;;;;;;;-142.75;68.61;76210.06;5067029;28;20395;-78
2021/07/28 00:37:45;;;;;;;;;;;;;;;-142.75;68.59;76212.03;5062749;28;19923;-79
2021/07/28 00:40:11;;;;;;;;;;;;;;;-142.75;68.60;76200.25;5064853;28;19921;-79
2021/07/28 00:42:36;;;;;;;;;;;;;;;-142.75;68.15;76192.38;5057464;28;19923;-79
2021/07/28 00:45:02;;;;;;;;;;;;;;;-142.75;68.25;76198.28;5055990;28;19920;-79
2021/07/28 00:47:27;;;;;;;;;;;;;;;-142.75;68.06;76188.44;5069166;28;19966;-78
2021/07/28 00:49:52;;;;;;;;;;;;;;;-142.75;68.58;76229.75;5067768;28;19916;-78
2021/07/28 00:52:17;;;;;;;;;;;;;;;-142.75;69.40;76239.59;5062900;28;20000;-79
2021/07/28 00:54:43;;;;;;;;;;;;;;;-142.75;69.41;76221.88;5061791;28;19917;-79
2021/07/28 00:57:08;;;;;;;;;;;;;;;-142.75;69.16;76215.97;5049816;28;19917;-80
2021/07/28 00:59:34;;;;;;;;;;;;;;;-142.75;69.23;76221.88;5054766;28;19924;-79
2021/07/28 01:01:59;;;;;;;;;;;;;;;-142.75;69.16;76198.28;5064645;28;19917;-79
2021/07/28 01:04:25;;;;;;;;;;;;;;;-142.75;69.32;76208.09;5064351;28;19916;-79
2021/07/28 01:06:50;;;;;;;;;;;;;;;-142.75;69.21;76196.31;5058969;28;19917;-80
2021/07/28 01:09:15;;;;;;;;;;;;;;;-142.75;69.26;76214.00;5053295;28;19966;-78
2021/07/28 01:11:41;;;;;;;;;;;;;;;-142.75;69.07;76198.28;5057982;28;19940;-78
2021/07/28 01:14:06;;;;;;;;;;;;;;;-142.75;69.03;76214.00;5057929;28;19955;-78
2021/07/28 01:16:36;;;;;;;;;;;;;;;-142.75;69.07;76202.19;5059135;28;19921;-79
2021/07/28 01:19:04;;;;;;;;;;;;;;;-142.75;69.05;76194.34;5060963;28;20417;-78
2021/07/28 01:21:29;;;;;;;;;;;;;;;-142.75;68.99;76192.38;5061916;28;19917;-79
2021/07/28 01:23:55;;;;;;;;;;;;;;;-142.75;69.10;76198.28;5068413;28;20009;-80
2021/07/28 01:26:21;;;;;;;;;;;;;;;-142.75;69.23;76206.13;5064778;28;19939;-79
2021/07/28 01:28:46;;;;;;;;;;;;;;;-142.75;69.00;76184.50;5064679;28;19920;-78
2021/07/28 01:31:15;;;;;;;;;;;;;;;-142.75;68.77;76174.66;5063861;28;19917;-79
2021/07/28 01:33:41;;;;;;;;;;;;;;;-142.75;68.73;76174.66;5063672;28;20027;-80
2021/07/28 01:36:08;;;;;;;;;;;;;;;-142.75;69.04;76164.81;5062864;28;19924;-79
2021/07/28 01:38:34;;;;;;;;;;;;;;;-142.75;68.92;76154.97;5067755;28;19921;-78
2021/07/28 01:41:00;;;;;;;;;;;;;;;-142.75;68.83;76143.16;5060810;28;19925;-78
2021/07/28 01:43:29;;;;;;;;;;;;;;;-142.75;68.97;76156.94;5062901;28;19917;-79
2021/07/28 01:45:55;;;;;;;;;;;;;;;-142.75;69.08;76153.00;5069708;28;19923;-77
2021/07/28 01:48:20;;;;;;;;;;;;;;;-142.75;69.01;76149.06;5064208;28;19920;-79
2021/07/28 01:50:46;;;;;;;;;;;;;;;-142.75;68.97;76149.06;5069337;28;19966;-80
2021/07/28 01:53:12;;;;;;;;;;;;;;;-142.75;68.99;76147.09;5061142;28;19921;-77
2021/07/28 01:55:37;;;;;;;;;;;;;;;-142.75;68.52;76113.63;5060398;28;19917;-79
2021/07/28 01:58:02;;;;;;;;;;;;;;;-142.75;68.69;76133.31;5066504;28;19939;-77
2021/07/28 02:00:28;;;;;;;;;;;;;;;-142.75;68.80;76123.47;5059431;28;19963;-79
2021/07/28 02:02:54;;;;;;;;;;;;;;;-142.75;69.44;76143.16;5069035;28;19924;-79
2021/07/28 02:05:19;;;;;;;;;;;;;;;-142.75;69.08;76095.91;5066208;28;19922;-78
2021/07/28 02:07:44;;;;;;;;;;;;;;;-142.75;68.83;76121.50;5066451;28;19920;-79
2021/07/28 02:10:10;;;;;;;;;;;;;;;-142.75;69.50;76133.31;5062119;28;19916;-78
2021/07/28 02:12:35;;;;;;;;;;;;;;;-142.75;70.21;76156.94;5064873;28;19935;-79
2021/07/28 02:15:00;;;;;;;;;;;;;;;-142.75;70.68;76172.69;5062305;28;19920;-78
2021/07/28 02:17:25;;;;;;;;;;;;;;;-142.75;70.70;76156.94;5062903;28;19917;-78
2021/07/28 02:19:50;;;;;;;;;;;;;;;-142.75;70.60;76145.13;5060247;28;20599;-79
2021/07/28 02:22:15;;;;;;;;;;;;;;;-142.75;70.38;76139.22;5064551;28;19916;-77
2021/07/28 02:24:41;;;;;;;;;;;;;;;-142.75;70.55;76147.09;5064042;28;20294;-78
2021/07/28 02:27:07;;;;;;;;;;;;;;;-142.75;70.41;76143.16;5066230;28;19921;-79
2021/07/28 02:29:33;;;;;;;;;;;;;;;-142.75;70.22;76121.50;5068141;28;19978;-79
2021/07/28 02:31:58;;;;;;;;;;;;;;;-142.75;70.37;76137.25;5054388;28;19917;-79
2021/07/28 02:34:24;;;;;;;;;;;;;;;-142.75;70.46;76143.16;5063410;28;19917;-79
2021/07/28 02:36:49;;;;;;;;;;;;;;;-142.75;70.67;76158.91;5071004;28;20289;-79
2021/07/28 02:39:14;;;;;;;;;;;;;;;-142.75;70.64;76137.25;5061441;28;19917;-78
2021/07/28 02:41:39;;;;;;;;;;;;;;;-142.75;70.83;76154.97;5057964;28;19920;-78
2021/07/28 02:44:05;;;;;;;;;;;;;;;-142.75;70.73;76139.22;5069979;28;19939;-78
2021/07/28 02:46:30;;;;;;;;;;;;;;;-142.75;70.25;76103.78;5063009;28;19916;-78
2021/07/28 02:48:55;;;;;;;;;;;;;;;-142.75;69.48;76066.41;5061634;28;19928;-79
2021/07/28 02:51:20;;;;;;;;;;;;;;;-142.75;69.23;76076.22;5068230;28;19998;-78
2021/07/28 02:53:45;;;;;;;;;;;;;;;-142.75;69.32;76097.88;5065954;28;19924;-78
2021/07/28 02:56:10;;;;;;;;;;;;;;;-142.75;69.35;76076.22;5058911;28;19925;-78
2021/07/28 02:58:36;;;;;;;;;;;;;;;-142.75;68.99;76070.34;5058884;28;19916;-78
2021/07/28 03:01:01;;;;;;;;;;;;;;;-142.75;69.04;76093.94;5063237;28;19921;-78
2021/07/28 03:03:26;;;;;;;;;;;;;;;-142.75;69.02;76070.34;5062260;28;19937;-78
2021/07/28 03:05:51;;;;;;;;;;;;;;;-142.75;69.54;76107.72;5061247;28;19916;-79
2021/07/28 03:08:16;;;;;;;;;;;;;;;-142.75;69.17;76060.50;5060265;28;19933;-79
2021/07/28 03:10:42;;;;;;;;;;;;;;;-142.75;68.82;76048.69;5064557;28;20297;-79
2021/07/28 03:13:07;;;;;;;;;;;;;;;-142.75;68.18;76046.72;5060763;28;19920;-78
2021/07/28 03:15:32;;;;;;;;;;;;;;;-142.75;68.31;76030.97;5057121;28;19917;-78
2021/07/28 03:17:57;;;;;;;;;;;;;;;-142.75;68.61;76058.53;5056981;28;20406;-77
2021/07/28 03:20:22;;;;;;;;;;;;;;;-142.75;68.22;76027.03;5064800;28;20057;-78
2021/07/28 03:22:48;;;;;;;;;;;;;;;-142.75;67.87;76025.06;5057513;28;19917;-78
2021/07/28 03:25:13;;;;;;;;;;;;;;;-142.75;67.95;76021.13;5057671;28;19940;-77
2021/07/28 03:27:38;;;;;;;;;;;;;;;-142.75;68.95;76066.41;5055402;28;19924;-79
2021/07/28 03:30:03;;;;;;;;;;;;;;;-142.75;69.42;76080.16;5063058;28;19943;-79
2021/07/28 03:32:28;;;;;;;;;;;;;;;-142.75;69.73;76095.91;5062755;28;20444;-79
2021/07/28 03:34:54;;;;;;;;;;;;;;;-142.75;69.96;76090.00;5066353;28;20344;-78
2021/07/28 03:37:19;;;;;;;;;;;;;;;-142.75;70.00;76093.94;5065539;28;20362;-80
2021/07/28 03:39:45;;;;;;;;;;;;;;;-142.75;69.51;76060.50;5054215;28;19916;-79
2021/07/28 03:42:10;;;;;;;;;;;;;;;-142.75;69.44;76066.41;5061680;28;20343;-79
2021/07/28 03:44:35;;;;;;;;;;;;;;;-142.75;69.45;76076.22;5062089;28;19924;-78
2021/07/28 03:47:00;;;;;;;;;;;;;;;-142.75;69.51;76103.78;5069146;28;19920;-79
2021/07/28 03:49:25;;;;;;;;;;;;;;;-142.75;70.21;76097.88;5065549;28;20498;-78
2021/07/28 03:51:50;;;;;;;;;;;;;;;-142.75;70.76;76123.47;5063108;28;20394;-78
2021/07/28 03:54:16;;;;;;;;;;;;;;;-142.75;70.58;76097.88;5070031;28;19917;-79
2021/07/28 03:56:41;;;;;;;;;;;;;;;-142.75;70.53;76115.59;5066161;28;19920;-80
2021/07/28 03:59:06;;;;;;;;;;;;;;;-142.75;70.58;76105.75;5062036;28;19923;-79
2021/07/28 04:01:31;;;;;;;;;;;;;;;-142.75;70.46;76099.84;5058452;28;19916;-79
2021/07/28 04:03:56;;;;;;;;;;;;;;;-142.75;70.40;76086.06;5065749;28;19955;-77
2021/07/28 04:06:21;;;;;;;;;;;;;;;-142.75;69.56;76064.44;5058644;28;19916;-79
2021/07/28 04:08:47;;;;;;;;;;;;;;;-142.75;70.15;76105.75;5056281;28;19921;-77
2021/07/28 04:11:12;;;;;;;;;;;;;;;-142.75;70.79;76109.69;5063655;28;19938;-79
2021/07/28 04:13:37;;;;;;;;;;;;;;;-142.75;70.90;76119.53;5056776;28;19928;-77
2021/07/28 04:16:02;;;;;;;;;;;;;;;-142.75;71.18;76135.28;5061996;28;19923;-79
2021/07/28 04:18:28;;;;;;;;;;;;;;;-142.75;71.32;76117.56;5057415;28;20390;-79
2021/07/28 04:20:53;;;;;;;;;;;;;;;-142.75;71.44;76125.44;5063824;28;19926;-80
2021/07/28 04:23:18;;;;;;;;;;;;;;;-142.75;71.41;76127.41;5069055;28;20267;-77
2021/07/28 04:25:43;;;;;;;;;;;;;;;-142.75;71.08;76111.66;5084515;22;19946;-78
2021/07/28 04:28:09;;;;;;;;;;;;;;;-142.75;71.05;76101.81;5071232;28;19924;-79
2021/07/28 04:30:34;;;;;;;;;;;;;;;-142.75;70.89;76076.22;5089276;28;19916;-77
2021/07/28 04:32:59;;;;;;;;;;;;;;;-142.75;70.65;76095.91;5073514;28;20312;-77
2021/07/28 04:35:24;;;;;;;;;;;;;;;-142.75;70.93;76109.69;5070051;28;19970;-78
2021/07/28 04:37:50;;;;;;;;;;;;;;;-142.75;71.09;76101.81;5051327;28;19974;-79
2021/07/28 04:40:15;;;;;;;;;;;;;;;-142.75;71.21;76099.84;5069429;28;20594;-79
2021/07/28 04:42:41;;;;;;;;;;;;;;;-142.75;71.19;76093.94;5059586;28;19944;-78
2021/07/28 04:45:06;;;;;;;;;;;;;;;-142.75;70.96;76080.16;5051347;28;19931;-78
2021/07/28 04:47:31;;;;;;;;;;;;;;;-142.75;70.89;76090.00;5069452;28;19916;-79
2021/07/28 04:49:56;;;;;;;;;;;;;;;-142.75;70.79;76097.88;5070984;28;19917;-77
2021/07/28 04:52:25;;;;;;;;;;;;;;;-142.75;70.83;76099.84;5069930;28;19923;-79
2021/07/28 04:54:51;;;;;;;;;;;;;;;-142.75;70.90;76095.91;5051753;28;19921;-78
2021/07/28 04:57:16;;;;;;;;;;;;;;;-142.75;70.51;76072.31;5071484;28;19987;-79
2021/07/28 04:59:41;;;;;;;;;;;;;;;-142.75;70.52;76058.53;5073826;28;19924;-78
2021/07/28 05:02:06;;;;;;;;;;;;;;;-142.75;69.75;76017.19;5074077;28;20440;-79
2021/07/28 05:04:31;;;;;;;;;;;;;;;-142.75;69.57;76019.16;5057977;28;19952;-78
2021/07/28 05:06:56;;;;;;;;;;;;;;;-142.75;69.57;76036.88;5054991;28;20367;-78
2021/07/28 05:09:22;;;;;;;;;;;;;;;-142.75;69.60;76027.03;5064058;28;19927;-78
2021/07/28 05:11:47;;;;;;;;;;;;;;;-142.75;69.03;76027.03;5056175;28;20434;-79
2021/07/28 05:14:12;;;;;;;;;;;;;;;-142.75;68.51;76009.31;5055348;28;19916;-78
2021/07/28 05:16:37;;;;;;;;;;;;;;;-142.75;68.18;75983.72;5054941;28;20386;-77
2021/07/28 05:19:02;;;;;;;;;;;;;;;-142.75;67.82;75999.47;5059473;28;19921;-79
2021/07/28 05:21:27;;;;;;;;;;;;;;;-142.75;67.72;75999.47;5067095;28;20297;-78
2021/07/28 05:23:53;;;;;;;;;;;;;;;-142.75;67.46;75983.72;5075555;28;19920;-79
2021/07/28 05:26:18;;;;;;;;;;;;;;;-142.75;67.15;75971.91;5059441;28;19925;-78
2021/07/28 05:28:43;;;;;;;;;;;;;;;-142.75;67.28;75989.63;5058408;28;19921;-79
2021/07/28 05:31:08;;;;;;;;;;;;;;;-142.75;67.17;75995.53;5055277;28;20347;-78
2021/07/28 05:33:33;;;;;;;;;;;;;;;-142.75;67.10;75979.78;5059421;28;19950;-79
2021/07/28 05:35:59;;;;;;;;;;;;;;;-142.75;66.85;75993.56;5072795;28;20361;-77
2021/07/28 05:38:24;;;;;;;;;;;;;;;-142.75;67.00;75989.63;5069890;28;19917;-79
2021/07/28 05:40:49;;;;;;;;;;;;;;;-142.75;66.76;75967.97;5056037;28;20382;-77
2021/07/28 05:43:14;;;;;;;;;;;;;;;-142.75;66.32;75975.84;5072422;28;20443;-78
2021/07/28 05:45:39;;;;;;;;;;;;;;;-142.75;66.48;75952.25;5073611;28;20791;-77
2021/07/28 05:48:05;;;;;;;;;;;;;;;-142.75;66.98;75954.22;5069826;28;19927;-77
2021/07/28 05:50:30;;;;;;;;;;;;;;;-142.75;66.33;75956.19;5072427;28;20598;-79
2021/07/28 05:52:55;;;;;;;;;;;;;;;-142.75;65.13;75885.31;5065399;28;19923;-78
2021/07/28 05:55:20;;;;;;;;;;;;;;;-142.75;64.43;75883.34;5065076;28;19916;-78
2021/07/28 05:57:47;;;;;;;;;;;;;;;-142.75;63.87;75844.00;5044269;28;19929;-78
2021/07/28 06:00:13;;;;;;;;;;;;;;;-142.75;62.11;75786.91;5056509;28;19916;-77
2021/07/28 06:02:38;;;;;;;;;;;;;;;-142.75;61.79;75775.09;5067341;28;20340;-78
2021/07/28 06:05:04;;;;;;;;;;;;;;;-142.75;60.48;75743.63;5058980;28;19916;-78
2021/07/28 06:07:29;;;;;;;;;;;;;;;-142.75;60.70;75727.88;5069478;28;20068;-78
2021/07/28 06:09:54;;;;;;;;;;;;;;;-142.75;60.24;75739.69;5071815;28;21855;-77
2021/07/28 06:12:19;;;;;;;;;;;;;;;-142.75;59.64;75686.53;5069258;28;20478;-78
2021/07/28 06:14:45;;;;;;;;;;;;;;;-142.75;59.34;75639.31;5065689;28;19916;-78
2021/07/28 06:17:10;;;;;;;;;;;;;;;-142.75;57.85;75637.34;5073821;28;19965;-79
2021/07/28 06:19:36;;;;;;;;;;;;;;;-142.75;57.59;75617.66;5057603;28;20007;-79
2021/07/28 06:22:01;;;;;;;;;;;;;;;-142.75;57.43;75684.56;5070244;28;20290;-78
2021/07/28 06:24:26;;;;;;;;;;;;;;;-142.75;58.32;75672.78;5055464;28;20011;-78
2021/07/28 06:26:51;;;;;;;;;;;;;;;-142.75;58.99;75682.59;5054808;28;19924;-78
2021/07/28 06:29:16;;;;;;;;;;;;;;;-142.75;58.48;75696.38;5069019;28;20340;-78
2021/07/28 06:31:41;;;;;;;;;;;;;;;-142.75;58.94;75720.00;5064678;28;20367;-79
2021/07/28 06:34:07;;;;;;;;;;;;;;;-142.75;58.84;75765.25;5073720;28;19923;-78
2021/07/28 06:36:32;;;;;;;;;;;;;;;-142.75;59.60;75779.03;5071355;28;20281;-79
2021/07/28 06:38:57;;;;;;;;;;;;;;;-142.75;60.17;75820.38;5057877;28;19916;-78
2021/07/28 06:41:22;;;;;;;;;;;;;;;-142.75;60.04;75830.22;5068373;28;20332;-78
2021/07/28 06:43:47;;;;;;;;;;;;;;;-142.75;61.03;75857.78;5057479;28;19924;-78
2021/07/28 06:46:13;;;;;;;;;;;;;;;-142.75;61.29;75834.16;5053959;28;20279;-79
2021/07/28 06:48:38;;;;;;;;;;;;;;;-142.75;61.17;75851.88;5066357;28;20572;-80
2021/07/28 06:51:03;;;;;;;;;;;;;;;-142.75;61.58;75881.38;5070012;28;19923;-78
2021/07/28 06:53:28;;;;;;;;;;;;;;;-142.75;61.44;75867.59;5065189;28;19923;-78
2021/07/28 06:55:53;;;;;;;;;;;;;;;-142.75;61.58;75893.19;5064793;28;19916;-78
2021/07/28 06:58:19;;;;;;;;;;;;;;;-142.75;61.85;75908.94;5066863;28;20548;-78
2021/07/28 07:00:44;;;;;;;;;;;;;;;-142.75;62.05;75922.72;5057299;28;20042;-78
2021/07/28 07:03:10;;;;;;;;;;;;;;;-142.75;62.37;75905.00;5058260;28;19925;-77
2021/07/28 07:05:35;;;;;;;;;;;;;;;-142.75;62.37;75897.13;5064517;28;19931;-79
2021/07/28 07:08:00;;;;;;;;;;;;;;;-142.75;62.02;75903.03;5060573;28;19925;-78
2021/07/28 07:10:25;;;;;;;;;;;;;;;-142.75;62.67;75897.13;5052050;28;19916;-78
2021/07/28 07:12:50;;;;;;;;;;;;;;;-142.75;62.45;75899.09;5056394;28;20008;-79
2021/07/28 07:15:16;;;;;;;;;;;;;;;-142.75;62.37;75877.44;5063280;28;19928;-79
2021/07/28 07:17:41;;;;;;;;;;;;;;;-142.75;62.20;75873.50;5054642;28;20377;-77
2021/07/28 07:20:06;;;;;;;;;;;;;;;-142.75;62.24;75814.47;5067011;28;19943;-80
2021/07/28 07:22:32;;;;;;;;;;;;;;;-142.75;61.48;75814.47;5071805;28;20339;-78
2021/07/28 07:24:57;;;;;;;;;;;;;;;-142.75;61.72;75798.72;5066656;28;20401;-78
2021/07/28 07:27:22;;;;;;;;;;;;;;;-142.75;61.03;75834.16;5070402;28;19917;-78
2021/07/28 07:29:48;;;;;;;;;;;;;;;-142.75;59.56;75784.94;5071937;28;19955;-78
2021/07/28 07:32:13;;;;;;;;;;;;;;;-142.75;59.97;75781.00;5058829;28;19958;-77
2021/07/28 07:34:38;;;;;;;;;;;;;;;-142.75;59.61;75777.06;5054092;28;19917;-76
2021/07/28 07:37:04;;;;;;;;;;;;;;;-142.75;58.70;75779.03;5062197;28;19916;-77
2021/07/28 07:39:30;;;;;;;;;;;;;;;-142.75;59.51;75775.09;5072656;28;20390;-78
2021/07/28 07:41:55;;;;;;;;;;;;;;;-142.75;59.13;75784.94;5070580;28;20416;-79
2021/07/28 07:44:20;;;;;;;;;;;;;;;-142.75;59.19;75765.25;5068688;28;19962;-79
2021/07/28 07:46:46;;;;;;;;;;;;;;;-142.75;58.90;75769.19;5056999;28;19917;-77
2021/07/28 07:49:11;;;;;;;;;;;;;;;-142.75;59.25;75777.06;5068286;28;19924;-80
2021/07/28 07:51:36;;;;;;;;;;;;;;;-142.75;58.59;75747.56;5058741;28;19931;-79
2021/07/28 07:54:01;;;;;;;;;;;;;;;-142.75;58.66;75792.81;5063181;28;19917;-78
2021/07/28 07:56:28;;;;;;;;;;;;;;;-142.75;59.43;75759.38;5059268;28;19924;-79
2021/07/28 07:58:53;;;;;;;;;;;;;;;-142.75;59.41;75735.75;5052843;28;19928;-79
2021/07/28 08:01:18;;;;;;;;;;;;;;;-142.75;58.09;75775.09;5059649;28;19917;-77
2021/07/28 08:03:44;;;;;;;;;;;;;;;-142.75;57.99;75743.63;5059951;28;19924;-78
2021/07/28 08:06:09;;;;;;;;;;;;;;;-142.75;58.41;75779.03;5057947;28;19963;-79
2021/07/28 08:08:35;;;;;;;;;;;;;;;-142.75;58.26;75786.91;5060118;28;19921;-81
2021/07/28 08:11:00;;;;;;;;;;;;;;;-142.75;58.07;75727.88;5055503;28;19928;-78
2021/07/28 08:13:26;;;;;;;;;;;;;;;-142.75;56.94;75668.84;5074394;28;20485;-79
2021/07/28 08:15:51;;;;;;;;;;;;;;;-142.75;57.95;75798.72;5066051;28;19916;-77
2021/07/28 08:18:17;;;;;;;;;;;;;;;-142.75;59.59;75847.94;5072048;28;19939;-80
2021/07/28 08:20:42;;;;;;;;;;;;;;;-142.75;59.82;75834.16;5061547;28;19917;-81
2021/07/28 08:23:08;;;;;;;;;;;;;;;-142.75;59.14;75782.97;5051790;28;19917;-79
2021/07/28 08:25:33;;;;;;;;;;;;;;;-142.75;58.44;75759.38;5062718;28;19917;-80
2021/07/28 08:27:58;;;;;;;;;;;;;;;-142.75;58.29;75759.38;5074436;28;20508;-79
2021/07/28 08:30:24;;;;;;;;;;;;;;;-142.75;58.01;75729.84;5069577;28;19931;-79
2021/07/28 08:32:49;;;;;;;;;;;;;;;-142.75;57.16;75735.75;5067396;28;19916;-77
2021/07/28 08:35:14;;;;;;;;;;;;;;;-142.75;57.47;75743.63;5065417;28;19916;-77
2021/07/28 08:37:40;;;;;;;;;;;;;;;-142.75;57.71;75775.09;5055067;28;19921;-77
2021/07/28 08:40:07;;;;;;;;;;;;;;;-142.75;58.41;75781.00;5068425;28;19974;-78
2021/07/28 08:42:32;;;;;;;;;;;;;;;-142.75;57.44;75755.44;5052275;28;19917;-77
2021/07/28 08:44:57;;;;;;;;;;;;;;;-142.75;58.09;75782.97;5051426;28;20016;-77
2021/07/28 08:47:22;;;;;;;;;;;;;;;-142.75;57.42;75765.25;5061379;28;19965;-80
2021/07/28 08:49:51;;;;;;;;;;;;;;;-142.75;57.81;75765.25;5057205;28;19969;-79
2021/07/28 08:52:17;;;;;;;;;;;;;;;-142.75;58.17;75755.44;5074363;28;19920;-78
2021/07/28 08:54:42;;;;;;;;;;;;;;;-142.75;57.51;75737.72;5072358;28;19916;-77
2021/07/28 08:57:09;;;;;;;;;;;;;;;-142.75;56.95;75731.81;5069137;28;19923;-78
2021/07/28 08:59:35;;;;;;;;;;;;;;;-142.75;57.05;75716.06;5068378;28;19981;-78
2021/07/28 09:02:00;;;;;;;;;;;;;;;-142.75;57.60;75696.38;5061409;28;19955;-78
2021/07/28 09:04:26;;;;;;;;;;;;;;;-142.75;56.63;75692.44;5058868;28;19917;-77
2021/07/28 09:06:52;;;;;;;;;;;;;;;-142.75;56.54;75660.97;5054004;28;19917;-80
2021/07/28 09:09:18;;;;;;;;;;;;;;;-142.75;55.88;75625.53;5061772;28;19920;-80
2021/07/28 09:11:52;;;;;;;;;;;;;;;-142.75;53.68;75564.53;5065118;28;20023;-77
2021/07/28 09:14:20;;;;;;;;;;;;;;;-142.75;54.58;75582.25;5060754;28;19923;-76
2021/07/28 09:16:45;;;;;;;;;;;;;;;-142.75;54.58;75582.25;5057734;28;19923;-77
2021/07/28 09:19:11;;;;;;;;;;;;;;;-142.75;53.97;75531.06;5063275;28;20003;-78
2021/07/28 09:21:36;;;;;;;;;;;;;;;-142.75;53.77;75594.06;5067212;28;19920;-76
2021/07/28 09:24:13;;;;;;;;;;;;;;;-142.75;55.25;75599.94;5072595;28;19917;-79
2021/07/28 09:26:56;;;;;;;;;;;;;;;-142.75;52.35;75464.16;5059582;28;20034;-77
2021/07/28 09:29:25;;;;;;;;;;;;;;;-142.75;52.14;75456.28;5068673;28;20010;-78
2021/07/28 09:31:52;;;;;;;;;;;;;;;-142.75;52.22;75456.28;5053774;28;19921;-79
2021/07/28 09:34:19;;;;;;;;;;;;;;;-142.75;51.75;75448.41;5056112;28;19917;-79
2021/07/28 09:36:44;;;;;;;;;;;;;;;-142.75;51.71;75477.94;5071949;28;19970;-78
2021/07/28 09:39:21;;;;;;;;;;;;;;;-142.75;52.31;75540.91;5073384;28;20297;-77
2021/07/28 09:41:46;;;;;;;;;;;;;;;-142.75;52.58;75546.81;5071399;28;19922;-77
2021/07/28 09:44:22;;;;;;;;;;;;;;;-142.75;52.40;75536.97;5064170;28;19917;-76
2021/07/28 09:46:50;;;;;;;;;;;;;;;-142.75;52.56;75566.50;5060749;28;19920;-79
2021/07/28 09:49:18;;;;;;;;;;;;;;;-142.75;52.91;75426.78;5067849;28;20406;-77
2021/07/28 09:51:45;;;;;;;;;;;;;;;-142.75;51.28;75413.00;5062619;28;19962;-79
2021/07/28 09:54:12;;;;;;;;;;;;;;;-142.75;51.02;75334.28;5076186;28;20431;-79
2021/07/28 09:56:43;;;;;;;;;;;;;;;-142.75;49.17;75287.06;5074060;28;19923;-78
2021/07/28 09:59:08;;;;;;;;;;;;;;;-142.75;49.91;75344.13;5063206;28;19924;-78
2021/07/28 10:01:34;;;;;;;;;;;;;;;-142.75;50.49;75342.16;5070694;28;19916;-79
2021/07/28 10:04:00;;;;;;;;;;;;;;;-142.75;49.66;75424.81;5074579;28;19916;-78
2021/07/28 10:06:31;;;;;;;;;;;;;;;-142.75;50.96;75446.44;5074329;28;19920;-78
2021/07/28 10:08:57;;;;;;;;;;;;;;;-142.75;51.43;75487.78;5075403;28;19924;-77
2021/07/28 10:11:23;;;;;;;;;;;;;;;-142.75;51.21;75464.16;5066532;28;20355;-78
2021/07/28 10:13:49;;;;;;;;;;;;;;;-142.75;50.62;75454.31;5073519;28;20286;-79
2021/07/28 10:16:16;;;;;;;;;;;;;;;-142.75;50.80;75446.44;5076163;28;19942;-77
2021/07/28 10:18:41;;;;;;;;;;;;;;;-142.75;50.41;75456.28;5075415;28;19920;-78
2021/07/28 10:21:07;;;;;;;;;;;;;;;-142.75;51.40;75395.28;5075256;28;20386;-77
2021/07/28 10:23:33;;;;;;;;;;;;;;;-142.75;49.97;75352.00;5073976;28;19920;-77
2021/07/28 10:25:59;;;;;;;;;;;;;;;-142.75;48.22;75310.66;5068152;28;20038;-79
2021/07/28 10:28:24;;;;;;;;;;;;;;;-142.75;47.88;75304.75;5072954;28;19921;-78
2021/07/28 10:31:07;;;;;;;;;;;;;;;-142.75;47.78;75291.00;5072926;28;20351;-77
2021/07/28 10:33:32;;;;;;;;;;;;;;;-142.75;47.74;75287.06;5073675;28;20435;-80
2021/07/28 10:35:58;;;;;;;;;;;;;;;-142.75;47.74;75332.31;5073237;28;20015;-78
2021/07/28 10:38:23;;;;;;;;;;;;;;;-142.75;48.68;75322.47;5073510;28;19920;-81
2021/07/28 10:40:59;;;;;;;;;;;;;;;-142.75;48.85;75334.28;5072727;28;19990;-78
2021/07/28 10:43:24;;;;;;;;;;;;;;;-142.75;48.60;75359.88;5074069;28;19928;-78
2021/07/28 10:45:56;;;;;;;;;;;;;;;-142.75;49.18;75361.84;5074622;28;20003;-78
2021/07/28 10:48:40;;;;;;;;;;;;;;;-142.75;48.00;75353.97;5072614;28;19920;-78
2021/07/28 10:51:06;;;;;;;;;;;;;;;-142.75;49.88;75416.94;5073449;28;19921;-78
2021/07/28 10:53:47;;;;;;;;;;;;;;;-142.75;49.59;75468.09;5074180;28;20421;-78
2021/07/28 10:56:12;;;;;;;;;;;;;;;-142.75;50.88;75489.75;5072850;28;19924;-79
2021/07/28 10:58:37;;;;;;;;;;;;;;;-142.75;49.96;75470.06;5073711;28;19992;-78
2021/07/28 11:01:02;;;;;;;;;;;;;;;-142.75;50.45;75405.13;5072034;28;19916;-79
2021/07/28 11:03:28;;;;;;;;;;;;;;;-142.75;48.94;75310.66;5073814;28;19923;-78
2021/07/28 11:06:11;;;;;;;;;;;;;;;-142.75;48.73;75208.34;5073183;28;19974;-77
2021/07/28 11:08:36;;;;;;;;;;;;;;;-142.75;46.70;75098.16;5074462;28;20435;-78
2021/07/28 11:11:02;;;;;;;;;;;;;;;-142.75;45.50;75224.09;5068287;28;19917;-78
2021/07/28 11:13:31;;;;;;;;;;;;;;;-142.75;47.57;75060.75;5053644;28;19974;-77
2021/07/28 11:15:57;;;;;;;;;;;;;;;-142.75;45.33;74993.84;5053412;28;19917;-77
2021/07/28 11:18:39;;;;;;;;;;;;;;;-142.75;44.00;74989.91;5053747;28;19917;-77
2021/07/28 11:21:05;;;;;;;;;;;;;;;-142.75;44.76;75123.72;5072578;28;19923;-78
2021/07/28 11:23:30;;;;;;;;;;;;;;;-142.75;44.69;75094.22;5073178;28;19920;-77
2021/07/28 11:25:56;;;;;;;;;;;;;;;-142.75;45.75;75243.75;5072944;28;20385;-78
2021/07/28 11:28:22;;;;;;;;;;;;;;;-142.75;47.27;75273.28;5072795;28;19921;-79
2021/07/28 11:30:54;;;;;;;;;;;;;;;-142.75;48.32;75338.22;5071189;28;19924;-76
2021/07/28 11:33:20;;;;;;;;;;;;;;;-142.75;48.34;75304.75;5074168;28;19924;-78
2021/07/28 11:35:46;;;;;;;;;;;;;;;-142.75;50.08;75279.19;5072956;28;19923;-77
2021/07/28 11:38:23;;;;;;;;;;;;;;;-142.75;48.53;75212.28;5071412;28;19920;-77
2021/07/28 11:40:53;;;;;;;;;;;;;;;-142.75;48.17;75155.22;5072756;28;19923;-78
2021/07/28 11:43:26;;;;;;;;;;;;;;;-142.75;47.39;75172.91;5072677;28;19999;-78
2021/07/28 11:45:52;;;;;;;;;;;;;;;-142.75;47.22;75165.03;5071515;28;19924;-77
2021/07/28 11:48:31;;;;;;;;;;;;;;;-142.75;46.86;75269.34;5055890;28;20382;-77
2021/07/28 11:50:56;;;;;;;;;;;;;;;-142.75;49.36;75428.75;5069391;28;19917;-77
2021/07/28 11:53:25;;;;;;;;;;;;;;;-142.75;50.76;75475.97;5052162;28;19928;-77
2021/07/28 11:55:51;;;;;;;;;;;;;;;-142.75;51.12;75509.44;5069931;28;19920;-77
2021/07/28 11:58:16;;;;;;;;;;;;;;;-142.75;50.64;75503.53;5070428;28;19917;-78
2021/07/28 12:00:41;;;;;;;;;;;;;;;-142.75;49.51;75409.06;5070470;28;20405;-78
2021/07/28 12:03:23;;;;;;;;;;;;;;;-142.75;49.44;75371.66;5070520;28;19920;-77
2021/07/28 12:06:06;;;;;;;;;;;;;;;-142.75;50.71;75552.72;5070542;28;20302;-78
2021/07/28 12:08:35;;;;;;;;;;;;;;;-142.75;53.08;75550.75;5071485;28;19956;-78
2021/07/28 12:11:05;;;;;;;;;;;;;;;-142.75;54.29;75538.94;5071241;28;19920;-78
2021/07/28 12:13:40;;;;;;;;;;;;;;;-142.75;54.41;75574.38;5056686;28;19957;-79
2021/07/28 12:16:05;;;;;;;;;;;;;;;-142.75;54.43;75554.69;5069266;28;20344;-78
2021/07/28 12:18:40;;;;;;;;;;;;;;;-142.75;53.06;75523.19;5069125;28;20007;-78
2021/07/28 12:21:06;;;;;;;;;;;;;;;-142.75;53.14;75501.56;5065616;28;20305;-79
2021/07/28 12:23:31;;;;;;;;;;;;;;;-142.75;52.41;75495.66;5051931;28;19920;-77
2021/07/28 12:25:57;;;;;;;;;;;;;;;-142.75;51.88;75422.84;5070668;28;19917;-78